sensor_id;sensor_type;location;lat;lon;timestamp;temperature;humidity
15355;DHT22;7777;52.254;9.618;2022-08-21T00:00:47;17.00;99.60
15355;DHT22;7777;52.254;9.618;2022-08-21T00:03:14;17.00;99.20
15355;DHT22;7777;52.254;9.618;2022-08-21T00:05:46;16.90;99.40
15355;DHT22;7777;52.254;9.618;2022-08-21T00:08:16;16.90;99.30
15355;DHT22;7777;52.254;9.618;2022-08-21T00:10:43;16.80;99.30
15355;DHT22;7777;52.254;9.618;2022-08-21T00:13:11;16.80;99.10
15355;DHT22;7777;52.254;9.618;2022-08-21T00:15:40;16.90;99.20
15355;DHT22;7777;52.254;9.618;2022-08-21T00:18:08;16.90;99.10
15355;DHT22;7777;52.254;9.618;2022-08-21T00:20:34;16.90;99.00
15355;DHT22;7777;52.254;9.618;2022-08-21T00:23:00;16.80;99.00
15355;DHT22;7777;52.254;9.618;2022-08-21T00:25:27;16.80;99.00
15355;DHT22;7777;52.254;9.618;2022-08-21T00:27:53;16.80;99.20
15355;DHT22;7777;52.254;9.618;2022-08-21T00:30:22;16.80;99.10
15355;DHT22;7777;52.254;9.618;2022-08-21T00:32:50;16.70;99.20
15355;DHT22;7777;52.254;9.618;2022-08-21T00:35:18;16.60;99.20
15355;DHT22;7777;52.254;9.618;2022-08-21T00:37:46;16.60;99.00
15355;DHT22;7777;52.254;9.618;2022-08-21T00:40:15;16.60;99.00
15355;DHT22;7777;52.254;9.618;2022-08-21T00:42:43;16.60;99.30
15355;DHT22;7777;52.254;9.618;2022-08-21T00:45:10;16.50;99.30
15355;DHT22;7777;52.254;9.618;2022-08-21T00:47:36;16.50;99.10
15355;DHT22;7777;52.254;9.618;2022-08-21T00:50:05;16.50;99.50
15355;DHT22;7777;52.254;9.618;2022-08-21T00:52:34;16.50;99.00
15355;DHT22;7777;52.254;9.618;2022-08-21T00:55:01;16.40;99.50
15355;DHT22;7777;52.254;9.618;2022-08-21T00:57:33;16.40;99.70
15355;DHT22;7777;52.254;9.618;2022-08-21T01:00:05;16.30;99.80
15355;DHT22;7777;52.254;9.618;2022-08-21T01:02:35;16.20;99.90
15355;DHT22;7777;52.254;9.618;2022-08-21T01:05:01;16.20;99.90
15355;DHT22;7777;52.254;9.618;2022-08-21T01:07:27;16.10;99.90
15355;DHT22;7777;52.254;9.618;2022-08-21T01:09:52;16.10;99.90
15355;DHT22;7777;52.254;9.618;2022-08-21T01:12:18;16.10;99.90
15355;DHT22;7777;52.254;9.618;2022-08-21T01:14:44;16.10;99.90
15355;DHT22;7777;52.254;9.618;2022-08-21T01:17:12;16.10;99.70
15355;DHT22;7777;52.254;9.618;2022-08-21T01:19:39;16.10;99.90
15355;DHT22;7777;52.254;9.618;2022-08-21T01:22:05;16.00;99.90
15355;DHT22;7777;52.254;9.618;2022-08-21T01:24:31;16.00;99.90
15355;DHT22;7777;52.254;9.618;2022-08-21T01:26:58;16.00;99.90
15355;DHT22;7777;52.254;9.618;2022-08-21T01:29:55;16.00;99.90
15355;DHT22;7777;52.254;9.618;2022-08-21T01:32:23;16.00;99.90
15355;DHT22;7777;52.254;9.618;2022-08-21T01:34:51;15.90;99.90
15355;DHT22;7777;52.254;9.618;2022-08-21T01:37:20;15.90;99.90
15355;DHT22;7777;52.254;9.618;2022-08-21T01:39:47;15.80;99.90
15355;DHT22;7777;52.254;9.618;2022-08-21T01:42:14;15.80;99.90
15355;DHT22;7777;52.254;9.618;2022-08-21T01:44:41;15.80;99.90
15355;DHT22;7777;52.254;9.618;2022-08-21T01:47:09;15.80;99.90
15355;DHT22;7777;52.254;9.618;2022-08-21T01:49:37;15.80;99.90
15355;DHT22;7777;52.254;9.618;2022-08-21T01:52:04;15.80;99.90
15355;DHT22;7777;52.254;9.618;2022-08-21T01:54:30;15.70;99.90
15355;DHT22;7777;52.254;9.618;2022-08-21T01:56:56;15.70;99.90
15355;DHT22;7777;52.254;9.618;2022-08-21T01:59:24;15.70;99.90
15355;DHT22;7777;52.254;9.618;2022-08-21T02:01:50;15.70;99.90
15355;DHT22;7777;52.254;9.618;2022-08-21T02:04:19;15.80;99.90
15355;DHT22;7777;52.254;9.618;2022-08-21T02:06:46;15.80;99.90
15355;DHT22;7777;52.254;9.618;2022-08-21T02:09:13;15.80;99.90
15355;DHT22;7777;52.254;9.618;2022-08-21T02:11:40;15.80;99.90
15355;DHT22;7777;52.254;9.618;2022-08-21T02:14:11;15.80;99.90
15355;DHT22;7777;52.254;9.618;2022-08-21T02:16:40;15.80;99.90
15355;DHT22;7777;52.254;9.618;2022-08-21T02:19:08;15.80;99.90
15355;DHT22;7777;52.254;9.618;2022-08-21T02:21:34;15.80;99.90
15355;DHT22;7777;52.254;9.618;2022-08-21T02:24:00;15.80;99.90
15355;DHT22;7777;52.254;9.618;2022-08-21T02:26:26;15.80;99.90
15355;DHT22;7777;52.254;9.618;2022-08-21T02:28:52;15.70;99.90
15355;DHT22;7777;52.254;9.618;2022-08-21T02:31:18;15.70;99.90
15355;DHT22;7777;52.254;9.618;2022-08-21T02:33:44;15.70;99.90
15355;DHT22;7777;52.254;9.618;2022-08-21T02:36:11;15.70;99.90
15355;DHT22;7777;52.254;9.618;2022-08-21T02:38:38;15.70;99.90
15355;DHT22;7777;52.254;9.618;2022-08-21T02:41:08;15.70;99.90
15355;DHT22;7777;52.254;9.618;2022-08-21T02:43:36;15.70;99.90
15355;DHT22;7777;52.254;9.618;2022-08-21T02:46:04;15.60;99.90
15355;DHT22;7777;52.254;9.618;2022-08-21T02:48:31;15.60;99.90
15355;DHT22;7777;52.254;9.618;2022-08-21T02:51:05;15.60;99.90
15355;DHT22;7777;52.254;9.618;2022-08-21T02:53:40;15.60;99.90
15355;DHT22;7777;52.254;9.618;2022-08-21T02:56:08;15.60;99.90
15355;DHT22;7777;52.254;9.618;2022-08-21T02:58:39;15.60;99.90
15355;DHT22;7777;52.254;9.618;2022-08-21T03:01:08;15.70;99.90
15355;DHT22;7777;52.254;9.618;2022-08-21T03:03:35;15.70;99.90
15355;DHT22;7777;52.254;9.618;2022-08-21T03:06:05;15.70;99.90
15355;DHT22;7777;52.254;9.618;2022-08-21T03:08:32;15.70;99.90
15355;DHT22;7777;52.254;9.618;2022-08-21T03:10:57;15.70;99.90
15355;DHT22;7777;52.254;9.618;2022-08-21T03:13:25;15.70;99.90
15355;DHT22;7777;52.254;9.618;2022-08-21T03:15:51;15.70;99.90
15355;DHT22;7777;52.254;9.618;2022-08-21T03:18:17;15.70;99.90
15355;DHT22;7777;52.254;9.618;2022-08-21T03:20:43;15.70;99.90
15355;DHT22;7777;52.254;9.618;2022-08-21T03:23:11;15.70;99.90
15355;DHT22;7777;52.254;9.618;2022-08-21T03:25:37;15.70;99.90
15355;DHT22;7777;52.254;9.618;2022-08-21T03:28:06;15.70;99.90
15355;DHT22;7777;52.254;9.618;2022-08-21T03:30:35;15.70;99.90
15355;DHT22;7777;52.254;9.618;2022-08-21T03:33:02;15.80;99.90
15355;DHT22;7777;52.254;9.618;2022-08-21T03:35:28;15.80;99.90
15355;DHT22;7777;52.254;9.618;2022-08-21T03:37:55;15.70;99.90
15355;DHT22;7777;52.254;9.618;2022-08-21T03:40:24;15.70;99.90
15355;DHT22;7777;52.254;9.618;2022-08-21T03:42:51;15.70;99.90
15355;DHT22;7777;52.254;9.618;2022-08-21T03:45:18;15.60;99.90
15355;DHT22;7777;52.254;9.618;2022-08-21T03:47:56;15.70;99.90
15355;DHT22;7777;52.254;9.618;2022-08-21T03:50:26;15.70;99.90
15355;DHT22;7777;52.254;9.618;2022-08-21T03:52:53;15.70;99.90
15355;DHT22;7777;52.254;9.618;2022-08-21T03:55:19;15.70;99.90
15355;DHT22;7777;52.254;9.618;2022-08-21T03:57:45;15.70;99.90
15355;DHT22;7777;52.254;9.618;2022-08-21T04:00:12;15.80;99.90
15355;DHT22;7777;52.254;9.618;2022-08-21T04:02:40;15.80;99.90
15355;DHT22;7777;52.254;9.618;2022-08-21T04:05:07;15.80;99.90
15355;DHT22;7777;52.254;9.618;2022-08-21T04:07:33;15.80;99.90
15355;DHT22;7777;52.254;9.618;2022-08-21T04:09:59;15.80;99.90
15355;DHT22;7777;52.254;9.618;2022-08-21T04:12:25;15.90;99.90
15355;DHT22;7777;52.254;9.618;2022-08-21T04:14:53;15.90;99.90
15355;DHT22;7777;52.254;9.618;2022-08-21T04:17:19;15.90;99.90
15355;DHT22;7777;52.254;9.618;2022-08-21T04:19:48;16.00;99.90
15355;DHT22;7777;52.254;9.618;2022-08-21T04:22:15;16.00;99.90
15355;DHT22;7777;52.254;9.618;2022-08-21T04:24:42;16.00;99.90
15355;DHT22;7777;52.254;9.618;2022-08-21T04:27:07;16.10;99.90
15355;DHT22;7777;52.254;9.618;2022-08-21T04:29:33;16.10;99.90
15355;DHT22;7777;52.254;9.618;2022-08-21T04:31:59;16.00;99.90
15355;DHT22;7777;52.254;9.618;2022-08-21T04:34:25;16.10;99.90
15355;DHT22;7777;52.254;9.618;2022-08-21T04:36:51;16.10;99.90
15355;DHT22;7777;52.254;9.618;2022-08-21T04:39:16;16.20;99.90
15355;DHT22;7777;52.254;9.618;2022-08-21T04:41:42;16.20;99.90
15355;DHT22;7777;52.254;9.618;2022-08-21T04:44:08;16.20;99.90
15355;DHT22;7777;52.254;9.618;2022-08-21T04:46:34;16.20;99.90
15355;DHT22;7777;52.254;9.618;2022-08-21T04:49:01;16.20;99.90
15355;DHT22;7777;52.254;9.618;2022-08-21T04:51:33;16.30;99.90
15355;DHT22;7777;52.254;9.618;2022-08-21T04:54:06;16.30;99.90
15355;DHT22;7777;52.254;9.618;2022-08-21T04:56:47;16.40;99.90
15355;DHT22;7777;52.254;9.618;2022-08-21T04:59:18;16.40;99.90
15355;DHT22;7777;52.254;9.618;2022-08-21T05:01:48;16.40;99.90
15355;DHT22;7777;52.254;9.618;2022-08-21T05:04:18;16.40;99.90
15355;DHT22;7777;52.254;9.618;2022-08-21T05:06:48;16.50;99.90
15355;DHT22;7777;52.254;9.618;2022-08-21T05:09:18;16.50;99.90
15355;DHT22;7777;52.254;9.618;2022-08-21T05:11:45;16.60;99.90
15355;DHT22;7777;52.254;9.618;2022-08-21T05:14:11;16.60;99.90
15355;DHT22;7777;52.254;9.618;2022-08-21T05:16:38;16.70;99.90
15355;DHT22;7777;52.254;9.618;2022-08-21T05:19:08;16.80;99.90
15355;DHT22;7777;52.254;9.618;2022-08-21T05:21:35;16.80;99.90
15355;DHT22;7777;52.254;9.618;2022-08-21T05:24:01;16.90;99.90
15355;DHT22;7777;52.254;9.618;2022-08-21T05:26:27;17.00;99.90
15355;DHT22;7777;52.254;9.618;2022-08-21T05:28:53;17.10;99.90
15355;DHT22;7777;52.254;9.618;2022-08-21T05:31:19;17.20;99.90
15355;DHT22;7777;52.254;9.618;2022-08-21T05:33:45;17.20;99.90
15355;DHT22;7777;52.254;9.618;2022-08-21T05:36:10;17.30;99.90
15355;DHT22;7777;52.254;9.618;2022-08-21T05:38:36;17.40;99.90
15355;DHT22;7777;52.254;9.618;2022-08-21T05:41:02;17.50;99.90
15355;DHT22;7777;52.254;9.618;2022-08-21T05:43:28;17.50;99.90
15355;DHT22;7777;52.254;9.618;2022-08-21T05:45:53;17.60;99.90
15355;DHT22;7777;52.254;9.618;2022-08-21T05:48:21;17.70;99.90
15355;DHT22;7777;52.254;9.618;2022-08-21T05:50:50;17.70;99.90
15355;DHT22;7777;52.254;9.618;2022-08-21T05:53:18;17.80;99.90
15355;DHT22;7777;52.254;9.618;2022-08-21T05:55:45;17.90;99.90
15355;DHT22;7777;52.254;9.618;2022-08-21T05:58:16;17.90;99.90
15355;DHT22;7777;52.254;9.618;2022-08-21T06:00:44;18.00;99.90
15355;DHT22;7777;52.254;9.618;2022-08-21T06:03:22;18.00;99.90
15355;DHT22;7777;52.254;9.618;2022-08-21T06:05:50;18.10;99.90
15355;DHT22;7777;52.254;9.618;2022-08-21T06:08:17;18.10;99.90
15355;DHT22;7777;52.254;9.618;2022-08-21T06:10:44;18.20;99.90
15355;DHT22;7777;52.254;9.618;2022-08-21T06:13:11;18.20;99.90
15355;DHT22;7777;52.254;9.618;2022-08-21T06:15:37;18.20;99.90
15355;DHT22;7777;52.254;9.618;2022-08-21T06:18:03;18.20;99.90
15355;DHT22;7777;52.254;9.618;2022-08-21T06:20:29;18.20;99.90
15355;DHT22;7777;52.254;9.618;2022-08-21T06:22:55;18.20;99.90
15355;DHT22;7777;52.254;9.618;2022-08-21T06:25:21;18.30;99.90
15355;DHT22;7777;52.254;9.618;2022-08-21T06:27:46;18.30;99.90
15355;DHT22;7777;52.254;9.618;2022-08-21T06:30:13;18.30;99.90
15355;DHT22;7777;52.254;9.618;2022-08-21T06:32:39;18.40;99.90
15355;DHT22;7777;52.254;9.618;2022-08-21T06:35:06;18.40;99.90
15355;DHT22;7777;52.254;9.618;2022-08-21T06:37:32;18.40;99.90
15355;DHT22;7777;52.254;9.618;2022-08-21T06:39:58;18.50;99.90
15355;DHT22;7777;52.254;9.618;2022-08-21T06:42:24;18.50;99.90
15355;DHT22;7777;52.254;9.618;2022-08-21T06:44:50;18.60;99.90
15355;DHT22;7777;52.254;9.618;2022-08-21T06:47:15;18.70;99.90
15355;DHT22;7777;52.254;9.618;2022-08-21T06:49:41;18.70;99.90
15355;DHT22;7777;52.254;9.618;2022-08-21T06:52:11;18.80;99.70
15355;DHT22;7777;52.254;9.618;2022-08-21T06:54:38;18.80;99.80
15355;DHT22;7777;52.254;9.618;2022-08-21T06:57:05;18.80;99.50
15355;DHT22;7777;52.254;9.618;2022-08-21T06:59:31;18.90;99.40
15355;DHT22;7777;52.254;9.618;2022-08-21T07:02:00;18.90;99.30
15355;DHT22;7777;52.254;9.618;2022-08-21T07:04:26;19.00;99.20
15355;DHT22;7777;52.254;9.618;2022-08-21T07:06:52;19.00;98.90
15355;DHT22;7777;52.254;9.618;2022-08-21T07:09:18;19.10;98.80
15355;DHT22;7777;52.254;9.618;2022-08-21T07:11:47;19.10;98.90
15355;DHT22;7777;52.254;9.618;2022-08-21T07:14:15;19.20;98.90
15355;DHT22;7777;52.254;9.618;2022-08-21T07:16:41;19.20;98.80
15355;DHT22;7777;52.254;9.618;2022-08-21T07:19:06;19.30;98.90
15355;DHT22;7777;52.254;9.618;2022-08-21T07:21:32;19.40;98.90
15355;DHT22;7777;52.254;9.618;2022-08-21T07:23:58;19.40;98.70
15355;DHT22;7777;52.254;9.618;2022-08-21T07:26:24;19.50;98.70
15355;DHT22;7777;52.254;9.618;2022-08-21T07:28:51;19.50;98.70
15355;DHT22;7777;52.254;9.618;2022-08-21T07:31:19;19.60;98.40
15355;DHT22;7777;52.254;9.618;2022-08-21T07:33:46;19.70;98.00
15355;DHT22;7777;52.254;9.618;2022-08-21T07:36:13;19.70;98.10
15355;DHT22;7777;52.254;9.618;2022-08-21T07:38:39;19.80;98.20
15355;DHT22;7777;52.254;9.618;2022-08-21T07:41:21;19.80;97.50
15355;DHT22;7777;52.254;9.618;2022-08-21T07:43:49;19.90;97.60
15355;DHT22;7777;52.254;9.618;2022-08-21T07:46:15;19.90;97.50
15355;DHT22;7777;52.254;9.618;2022-08-21T07:48:41;20.00;97.40
15355;DHT22;7777;52.254;9.618;2022-08-21T07:51:09;20.00;97.60
15355;DHT22;7777;52.254;9.618;2022-08-21T07:53:37;20.10;97.60
15355;DHT22;7777;52.254;9.618;2022-08-21T07:56:04;20.10;97.50
15355;DHT22;7777;52.254;9.618;2022-08-21T07:58:32;20.20;97.50
15355;DHT22;7777;52.254;9.618;2022-08-21T08:00:58;20.20;97.40
15355;DHT22;7777;52.254;9.618;2022-08-21T08:03:24;20.30;97.30
15355;DHT22;7777;52.254;9.618;2022-08-21T08:05:49;20.30;97.10
15355;DHT22;7777;52.254;9.618;2022-08-21T08:08:16;20.40;96.90
15355;DHT22;7777;52.254;9.618;2022-08-21T08:10:42;20.40;96.80
15355;DHT22;7777;52.254;9.618;2022-08-21T08:13:08;20.50;96.60
15355;DHT22;7777;52.254;9.618;2022-08-21T08:15:34;20.50;96.60
15355;DHT22;7777;52.254;9.618;2022-08-21T08:18:01;20.60;96.40
15355;DHT22;7777;52.254;9.618;2022-08-21T08:20:27;20.60;96.40
15355;DHT22;7777;52.254;9.618;2022-08-21T08:22:54;20.70;96.60
15355;DHT22;7777;52.254;9.618;2022-08-21T08:25:25;20.70;96.30
15355;DHT22;7777;52.254;9.618;2022-08-21T08:27:53;20.80;96.10
15355;DHT22;7777;52.254;9.618;2022-08-21T08:30:20;20.80;96.30
15355;DHT22;7777;52.254;9.618;2022-08-21T08:32:47;20.80;96.10
15355;DHT22;7777;52.254;9.618;2022-08-21T08:35:14;20.90;96.00
15355;DHT22;7777;52.254;9.618;2022-08-21T08:37:40;21.00;95.90
15355;DHT22;7777;52.254;9.618;2022-08-21T08:40:14;21.00;95.50
15355;DHT22;7777;52.254;9.618;2022-08-21T08:42:43;21.10;95.50
15355;DHT22;7777;52.254;9.618;2022-08-21T08:45:13;21.10;95.80
15355;DHT22;7777;52.254;9.618;2022-08-21T08:47:46;21.20;95.80
15355;DHT22;7777;52.254;9.618;2022-08-21T08:50:21;21.20;96.00
15355;DHT22;7777;52.254;9.618;2022-08-21T08:53:02;21.30;95.90
15355;DHT22;7777;52.254;9.618;2022-08-21T08:55:38;21.40;95.70
15355;DHT22;7777;52.254;9.618;2022-08-21T08:58:06;21.40;95.30
15355;DHT22;7777;52.254;9.618;2022-08-21T09:00:32;21.50;95.20
15355;DHT22;7777;52.254;9.618;2022-08-21T09:03:01;21.50;94.90
15355;DHT22;7777;52.254;9.618;2022-08-21T09:05:32;21.50;94.70
15355;DHT22;7777;52.254;9.618;2022-08-21T09:08:31;21.60;94.90
15355;DHT22;7777;52.254;9.618;2022-08-21T09:17:17;21.80;94.40
15355;DHT22;7777;52.254;9.618;2022-08-21T09:20:20;21.80;94.00
15355;DHT22;7777;52.254;9.618;2022-08-21T09:23:12;21.90;94.30
15355;DHT22;7777;52.254;9.618;2022-08-21T09:25:58;22.00;94.30
15355;DHT22;7777;52.254;9.618;2022-08-21T09:28:26;22.00;93.90
15355;DHT22;7777;52.254;9.618;2022-08-21T09:30:54;22.10;94.00
15355;DHT22;7777;52.254;9.618;2022-08-21T09:33:21;22.20;94.20
15355;DHT22;7777;52.254;9.618;2022-08-21T09:35:51;22.20;93.70
15355;DHT22;7777;52.254;9.618;2022-08-21T09:38:27;22.30;93.90
15355;DHT22;7777;52.254;9.618;2022-08-21T09:41:00;22.40;93.30
15355;DHT22;7777;52.254;9.618;2022-08-21T09:43:29;22.50;93.70
15355;DHT22;7777;52.254;9.618;2022-08-21T09:46:23;22.60;94.00
15355;DHT22;7777;52.254;9.618;2022-08-21T09:48:52;22.70;93.30
15355;DHT22;7777;52.254;9.618;2022-08-21T09:51:23;22.80;92.40
15355;DHT22;7777;52.254;9.618;2022-08-21T09:53:58;22.90;92.60
15355;DHT22;7777;52.254;9.618;2022-08-21T09:59:39;23.20;91.90
15355;DHT22;7777;52.254;9.618;2022-08-21T10:02:29;23.30;92.40
15355;DHT22;7777;52.254;9.618;2022-08-21T10:05:02;23.40;92.90
15355;DHT22;7777;52.254;9.618;2022-08-21T10:07:37;23.50;92.50
15355;DHT22;7777;52.254;9.618;2022-08-21T10:10:14;23.60;91.40
15355;DHT22;7777;52.254;9.618;2022-08-21T10:18:56;23.90;91.60
15355;DHT22;7777;52.254;9.618;2022-08-21T10:21:57;24.00;91.70
15355;DHT22;7777;52.254;9.618;2022-08-21T10:24:38;24.10;92.20
15355;DHT22;7777;52.254;9.618;2022-08-21T10:30:05;24.30;90.20
15355;DHT22;7777;52.254;9.618;2022-08-21T10:35:21;24.30;91.20
15355;DHT22;7777;52.254;9.618;2022-08-21T10:41:07;24.60;90.50
15355;DHT22;7777;52.254;9.618;2022-08-21T10:43:51;24.70;91.90
15355;DHT22;7777;52.254;9.618;2022-08-21T10:54:49;25.10;85.50
15355;DHT22;7777;52.254;9.618;2022-08-21T10:57:37;25.10;85.40
15355;DHT22;7777;52.254;9.618;2022-08-21T11:00:10;25.30;88.40
15355;DHT22;7777;52.254;9.618;2022-08-21T11:02:50;25.40;90.10
15355;DHT22;7777;52.254;9.618;2022-08-21T11:05:20;25.50;90.00
15355;DHT22;7777;52.254;9.618;2022-08-21T11:19:33;25.90;90.10
15355;DHT22;7777;52.254;9.618;2022-08-21T11:25:16;25.90;87.50
15355;DHT22;7777;52.254;9.618;2022-08-21T11:34:18;25.80;86.90
15355;DHT22;7777;52.254;9.618;2022-08-21T11:49:20;26.10;88.20
15355;DHT22;7777;52.254;9.618;2022-08-21T11:52:07;26.30;86.80
15355;DHT22;7777;52.254;9.618;2022-08-21T11:54:46;26.30;86.30
15355;DHT22;7777;52.254;9.618;2022-08-21T11:57:34;26.30;85.30
15355;DHT22;7777;52.254;9.618;2022-08-21T12:03:14;26.30;87.10
15355;DHT22;7777;52.254;9.618;2022-08-21T12:05:53;26.40;83.00
15355;DHT22;7777;52.254;9.618;2022-08-21T12:08:34;26.40;84.10
15355;DHT22;7777;52.254;9.618;2022-08-21T12:13:37;26.60;84.80
15355;DHT22;7777;52.254;9.618;2022-08-21T12:16:16;26.70;84.30
15355;DHT22;7777;52.254;9.618;2022-08-21T12:19:07;26.80;83.00
15355;DHT22;7777;52.254;9.618;2022-08-21T12:24:44;26.90;84.00
15355;DHT22;7777;52.254;9.618;2022-08-21T12:27:44;26.90;80.40
15355;DHT22;7777;52.254;9.618;2022-08-21T12:30:22;26.90;78.20
15355;DHT22;7777;52.254;9.618;2022-08-21T12:33:04;26.90;81.40
15355;DHT22;7777;52.254;9.618;2022-08-21T12:35:50;26.90;82.00
15355;DHT22;7777;52.254;9.618;2022-08-21T12:38:27;27.00;82.20
15355;DHT22;7777;52.254;9.618;2022-08-21T12:40:59;27.00;81.70
15355;DHT22;7777;52.254;9.618;2022-08-21T12:43:32;27.00;83.00
15355;DHT22;7777;52.254;9.618;2022-08-21T12:46:01;26.90;81.00
15355;DHT22;7777;52.254;9.618;2022-08-21T12:48:35;26.90;81.80
15355;DHT22;7777;52.254;9.618;2022-08-21T12:53:50;27.10;83.30
15355;DHT22;7777;52.254;9.618;2022-08-21T12:56:20;27.20;80.90
15355;DHT22;7777;52.254;9.618;2022-08-21T12:58:55;27.30;83.10
15355;DHT22;7777;52.254;9.618;2022-08-21T13:01:46;27.30;79.70
15355;DHT22;7777;52.254;9.618;2022-08-21T13:07:16;27.20;79.40
15355;DHT22;7777;52.254;9.618;2022-08-21T13:09:51;27.20;80.20
15355;DHT22;7777;52.254;9.618;2022-08-21T13:12:21;27.20;80.00
15355;DHT22;7777;52.254;9.618;2022-08-21T13:14:49;27.10;80.30
15355;DHT22;7777;52.254;9.618;2022-08-21T13:17:26;27.10;78.80
15355;DHT22;7777;52.254;9.618;2022-08-21T13:19:58;27.00;78.10
15355;DHT22;7777;52.254;9.618;2022-08-21T13:22:24;27.00;80.00
15355;DHT22;7777;52.254;9.618;2022-08-21T13:24:51;27.10;80.30
15355;DHT22;7777;52.254;9.618;2022-08-21T13:27:28;27.10;79.50
15355;DHT22;7777;52.254;9.618;2022-08-21T13:30:08;27.10;78.80
15355;DHT22;7777;52.254;9.618;2022-08-21T13:32:42;27.10;78.80
15355;DHT22;7777;52.254;9.618;2022-08-21T13:35:18;27.10;79.10
15355;DHT22;7777;52.254;9.618;2022-08-21T13:37:56;27.10;79.10
15355;DHT22;7777;52.254;9.618;2022-08-21T13:40:40;27.10;78.90
15355;DHT22;7777;52.254;9.618;2022-08-21T13:43:20;27.10;78.80
15355;DHT22;7777;52.254;9.618;2022-08-21T13:45:52;27.10;79.10
15355;DHT22;7777;52.254;9.618;2022-08-21T13:48:20;27.10;79.60
15355;DHT22;7777;52.254;9.618;2022-08-21T13:50:51;27.20;80.10
15355;DHT22;7777;52.254;9.618;2022-08-21T13:53:36;27.10;77.50
15355;DHT22;7777;52.254;9.618;2022-08-21T13:56:42;27.10;77.90
15355;DHT22;7777;52.254;9.618;2022-08-21T13:59:10;27.00;76.50
15355;DHT22;7777;52.254;9.618;2022-08-21T14:01:57;27.00;79.30
15355;DHT22;7777;52.254;9.618;2022-08-21T14:04:38;27.00;77.60
15355;DHT22;7777;52.254;9.618;2022-08-21T14:07:18;27.00;78.50
15355;DHT22;7777;52.254;9.618;2022-08-21T14:09:46;27.00;77.50
15355;DHT22;7777;52.254;9.618;2022-08-21T14:12:36;27.00;77.20
15355;DHT22;7777;52.254;9.618;2022-08-21T14:15:09;27.10;79.00
15355;DHT22;7777;52.254;9.618;2022-08-21T14:17:39;27.10;79.40
15355;DHT22;7777;52.254;9.618;2022-08-21T14:20:09;27.20;80.00
15355;DHT22;7777;52.254;9.618;2022-08-21T14:22:45;27.20;79.40
15355;DHT22;7777;52.254;9.618;2022-08-21T14:30:46;27.30;79.50
15355;DHT22;7777;52.254;9.618;2022-08-21T14:33:21;27.30;77.80
15355;DHT22;7777;52.254;9.618;2022-08-21T14:35:51;27.20;74.50
15355;DHT22;7777;52.254;9.618;2022-08-21T14:38:21;27.20;74.40
15355;DHT22;7777;52.254;9.618;2022-08-21T14:40:52;27.10;76.40
15355;DHT22;7777;52.254;9.618;2022-08-21T14:43:19;27.10;76.10
15355;DHT22;7777;52.254;9.618;2022-08-21T14:45:45;27.00;77.70
15355;DHT22;7777;52.254;9.618;2022-08-21T14:48:12;27.10;79.10
15355;DHT22;7777;52.254;9.618;2022-08-21T14:50:38;27.00;78.30
15355;DHT22;7777;52.254;9.618;2022-08-21T14:53:04;27.10;79.10
15355;DHT22;7777;52.254;9.618;2022-08-21T14:55:31;27.10;78.10
15355;DHT22;7777;52.254;9.618;2022-08-21T14:58:20;27.00;78.90
15355;DHT22;7777;52.254;9.618;2022-08-21T15:00:46;27.00;78.30
15355;DHT22;7777;52.254;9.618;2022-08-21T15:03:11;27.00;78.10
15355;DHT22;7777;52.254;9.618;2022-08-21T15:05:37;27.00;78.90
15355;DHT22;7777;52.254;9.618;2022-08-21T15:08:03;27.00;77.80
15355;DHT22;7777;52.254;9.618;2022-08-21T15:10:30;27.00;77.70
15355;DHT22;7777;52.254;9.618;2022-08-21T15:12:58;27.00;77.80
15355;DHT22;7777;52.254;9.618;2022-08-21T15:15:24;26.90;78.20
15355;DHT22;7777;52.254;9.618;2022-08-21T15:17:50;26.90;77.30
15355;DHT22;7777;52.254;9.618;2022-08-21T15:20:15;26.90;78.50
15355;DHT22;7777;52.254;9.618;2022-08-21T15:22:41;26.90;77.10
15355;DHT22;7777;52.254;9.618;2022-08-21T15:25:07;26.90;77.80
15355;DHT22;7777;52.254;9.618;2022-08-21T15:27:34;26.90;78.20
15355;DHT22;7777;52.254;9.618;2022-08-21T15:30:01;26.80;76.70
15355;DHT22;7777;52.254;9.618;2022-08-21T15:32:28;26.80;78.90
15355;DHT22;7777;52.254;9.618;2022-08-21T15:34:57;26.80;77.20
15355;DHT22;7777;52.254;9.618;2022-08-21T15:37:24;26.70;77.30
15355;DHT22;7777;52.254;9.618;2022-08-21T15:39:50;26.70;77.70
15355;DHT22;7777;52.254;9.618;2022-08-21T15:42:18;26.60;77.10
15355;DHT22;7777;52.254;9.618;2022-08-21T15:44:44;26.50;77.20
15355;DHT22;7777;52.254;9.618;2022-08-21T15:47:19;26.50;77.90
15355;DHT22;7777;52.254;9.618;2022-08-21T15:49:47;26.40;76.50
15355;DHT22;7777;52.254;9.618;2022-08-21T15:52:14;26.30;77.20
15355;DHT22;7777;52.254;9.618;2022-08-21T15:54:45;26.30;77.90
15355;DHT22;7777;52.254;9.618;2022-08-21T15:57:13;26.20;77.70
15355;DHT22;7777;52.254;9.618;2022-08-21T16:00:00;26.30;78.50
15355;DHT22;7777;52.254;9.618;2022-08-21T16:02:34;26.20;75.60
15355;DHT22;7777;52.254;9.618;2022-08-21T16:05:01;26.10;75.80
15355;DHT22;7777;52.254;9.618;2022-08-21T16:07:27;26.10;76.60
15355;DHT22;7777;52.254;9.618;2022-08-21T16:09:53;26.10;76.90
15355;DHT22;7777;52.254;9.618;2022-08-21T16:12:30;26.10;77.00
15355;DHT22;7777;52.254;9.618;2022-08-21T16:14:58;26.00;76.80
15355;DHT22;7777;52.254;9.618;2022-08-21T16:17:29;26.00;77.50
15355;DHT22;7777;52.254;9.618;2022-08-21T16:20:00;26.00;76.30
15355;DHT22;7777;52.254;9.618;2022-08-21T16:22:29;25.90;77.20
15355;DHT22;7777;52.254;9.618;2022-08-21T16:24:55;25.90;75.60
15355;DHT22;7777;52.254;9.618;2022-08-21T16:27:20;25.90;76.70
15355;DHT22;7777;52.254;9.618;2022-08-21T16:29:46;25.80;76.50
15355;DHT22;7777;52.254;9.618;2022-08-21T16:32:13;25.80;76.40
15355;DHT22;7777;52.254;9.618;2022-08-21T16:34:46;25.80;76.30
15355;DHT22;7777;52.254;9.618;2022-08-21T16:37:17;25.80;76.70
15355;DHT22;7777;52.254;9.618;2022-08-21T16:39:43;25.70;76.80
15355;DHT22;7777;52.254;9.618;2022-08-21T16:42:12;25.70;77.00
15355;DHT22;7777;52.254;9.618;2022-08-21T16:44:41;25.70;77.20
15355;DHT22;7777;52.254;9.618;2022-08-21T16:47:07;25.60;76.90
15355;DHT22;7777;52.254;9.618;2022-08-21T16:49:33;25.60;76.90
15355;DHT22;7777;52.254;9.618;2022-08-21T16:51:59;25.50;75.90
15355;DHT22;7777;52.254;9.618;2022-08-21T16:54:25;25.50;77.30
15355;DHT22;7777;52.254;9.618;2022-08-21T16:56:51;25.50;76.50
15355;DHT22;7777;52.254;9.618;2022-08-21T16:59:17;25.40;77.20
15355;DHT22;7777;52.254;9.618;2022-08-21T17:01:43;25.40;76.80
15355;DHT22;7777;52.254;9.618;2022-08-21T17:04:09;25.40;77.10
15355;DHT22;7777;52.254;9.618;2022-08-21T17:06:35;25.30;75.80
15355;DHT22;7777;52.254;9.618;2022-08-21T17:09:01;25.30;76.40
15355;DHT22;7777;52.254;9.618;2022-08-21T17:11:33;25.20;77.00
15355;DHT22;7777;52.254;9.618;2022-08-21T17:14:03;25.20;77.00
15355;DHT22;7777;52.254;9.618;2022-08-21T17:16:43;25.10;76.70
15355;DHT22;7777;52.254;9.618;2022-08-21T17:19:10;25.10;77.20
15355;DHT22;7777;52.254;9.618;2022-08-21T17:21:37;25.00;76.70
15355;DHT22;7777;52.254;9.618;2022-08-21T17:24:04;24.90;77.10
15355;DHT22;7777;52.254;9.618;2022-08-21T17:26:30;24.90;77.90
15355;DHT22;7777;52.254;9.618;2022-08-21T17:28:56;24.80;78.20